createdAt,value
2019-04-04T00:02:19.136Z,89.99
2019-04-04T00:04:47.576Z,89.53
2019-04-04T00:07:15.830Z,89.53
2019-04-04T00:09:44.105Z,89.79
2019-04-04T00:12:12.353Z,89.42
2019-04-04T00:14:43.504Z,90.08
2019-04-04T00:17:10.607Z,89.39
2019-04-04T00:19:38.881Z,90.29
2019-04-04T00:22:07.130Z,90.84
2019-04-04T00:24:35.406Z,90.66
2019-04-04T00:27:03.669Z,90.29
2019-04-04T00:29:33.286Z,90.49
2019-04-04T00:32:01.531Z,90.58
2019-04-04T00:34:29.820Z,89.12
2019-04-04T00:36:58.073Z,88.82
2019-04-04T00:39:26.351Z,88.71
2019-04-04T00:41:54.606Z,89.25
2019-04-04T00:44:23.741Z,89.51
2019-04-04T00:46:52.750Z,89.06
2019-04-04T00:49:21.346Z,88.88
2019-04-04T00:51:49.620Z,88.33
2019-04-04T00:54:17.873Z,89.55
2019-04-04T00:56:46.911Z,88.92
2019-04-04T00:59:16.129Z,89.58
2019-04-04T01:01:44.411Z,89.42
2019-04-04T01:04:12.960Z,88.96
2019-04-04T01:06:41.910Z,88.95
2019-04-04T01:09:13.098Z,89.60
2019-04-04T01:11:40.943Z,88.79
2019-04-04T01:14:09.208Z,89.58
2019-04-04T01:16:37.482Z,90.31
2019-04-04T01:19:05.734Z,90.62
2019-04-04T01:21:34.013Z,90.63
2019-04-04T01:24:02.347Z,90.29
2019-04-04T01:26:34.841Z,90.53
2019-04-04T01:29:01.379Z,90.57
2019-04-04T01:31:29.731Z,90.79
2019-04-04T01:33:57.981Z,90.65
2019-04-04T01:36:26.260Z,91.41
2019-04-04T01:38:54.517Z,92.00
2019-04-04T01:41:22.795Z,91.79
2019-04-04T01:44:04.316Z,91.88
2019-04-04T01:46:22.390Z,91.70
2019-04-04T01:48:50.963Z,91.13
2019-04-04T01:51:19.283Z,91.05
2019-04-04T01:53:48.954Z,91.26
2019-04-04T01:56:17.962Z,91.44
2019-04-04T01:58:46.239Z,92.48
2019-04-04T02:01:16.264Z,92.66
2019-04-04T02:03:44.489Z,92.42
2019-04-04T02:06:13.508Z,92.18
2019-04-04T02:08:41.792Z,92.38
2019-04-04T02:11:10.718Z,93.04
2019-04-04T02:13:40.885Z,92.87
2019-04-04T02:16:08.983Z,92.37
2019-04-04T02:18:37.263Z,92.52
2019-04-04T02:21:06.306Z,92.55
2019-04-04T02:23:34.565Z,92.35
2019-04-04T02:26:04.835Z,92.13
2019-04-04T02:28:33.065Z,91.17
2019-04-04T02:31:01.491Z,91.76
2019-04-04T02:33:32.410Z,91.72
2019-04-04T02:35:59.750Z,91.99
2019-04-04T02:38:28.299Z,92.16
2019-04-04T02:40:56.665Z,92.44
2019-04-04T02:43:28.388Z,92.67
2019-04-04T02:45:54.930Z,92.17
2019-04-04T02:48:24.703Z,92.18
2019-04-04T02:50:54.781Z,92.60
2019-04-04T02:53:23.063Z,93.48
2019-04-04T02:55:51.683Z,93.82
2019-04-04T02:58:19.964Z,93.89
2019-04-04T03:00:48.592Z,93.93
2019-04-04T03:03:17.435Z,93.85
2019-04-04T03:05:50.951Z,93.40
2019-04-04T03:08:15.701Z,93.10
2019-04-04T03:10:47.785Z,93.16
2019-04-04T03:13:14.627Z,93.22
2019-04-04T03:15:47.140Z,93.35
2019-04-04T03:18:12.885Z,93.36
2019-04-04T03:20:41.139Z,93.36
2019-04-04T03:23:09.390Z,92.96
2019-04-04T03:25:38.244Z,92.74
2019-04-04T03:28:06.510Z,92.03
2019-04-04T03:30:34.794Z,91.85
2019-04-04T03:33:03.646Z,92.75
2019-04-04T03:35:31.916Z,92.93
2019-04-04T03:38:00.143Z,92.17
2019-04-04T03:40:28.421Z,91.78
2019-04-04T03:42:56.685Z,92.30
2019-04-04T03:45:27.335Z,93.09
2019-04-04T03:47:55.512Z,93.53
2019-04-04T03:50:29.020Z,93.51
2019-04-04T03:52:55.105Z,93.12
2019-04-04T03:55:27.354Z,92.30
2019-04-04T03:57:55.142Z,92.12
2019-04-04T04:00:27.243Z,92.73
2019-04-04T04:02:55.494Z,92.50
2019-04-04T04:05:33.969Z,92.23
2019-04-04T04:07:58.872Z,92.30
2019-04-04T04:10:27.146Z,93.05
2019-04-04T04:12:55.401Z,93.48
2019-04-04T04:15:29.238Z,93.62
2019-04-04T04:17:55.437Z,93.73
2019-04-04T04:20:23.691Z,93.41
2019-04-04T04:22:52.738Z,92.65
2019-04-04T04:25:21.294Z,91.88
2019-04-04T04:27:50.544Z,91.42
2019-04-04T04:30:18.804Z,92.66
2019-04-04T04:32:47.648Z,92.53
2019-04-04T04:35:16.570Z,92.51
2019-04-04T04:37:44.847Z,92.24
2019-04-04T04:40:15.109Z,92.48
2019-04-04T04:42:43.633Z,93.70
2019-04-04T04:45:12.491Z,93.96
2019-04-04T04:47:41.221Z,93.29
2019-04-04T04:50:10.003Z,92.65
2019-04-04T04:52:38.429Z,93.51
2019-04-04T04:55:06.683Z,93.84
2019-04-04T04:57:37.141Z,94.23
2019-04-04T05:00:05.584Z,94.47
2019-04-04T05:02:33.866Z,94.50
2019-04-04T05:05:02.120Z,94.50
2019-04-04T05:07:31.329Z,94.13
2019-04-04T05:09:59.582Z,93.71
2019-04-04T05:12:27.857Z,93.78
2019-04-04T05:14:56.114Z,93.80
2019-04-04T05:17:24.961Z,93.57
2019-04-04T05:19:53.992Z,93.36
2019-04-04T05:22:22.265Z,93.95
2019-04-04T05:25:06.706Z,93.74
2019-04-04T05:27:20.544Z,93.85
2019-04-04T05:29:48.801Z,93.94
2019-04-04T05:32:17.081Z,93.95
2019-04-04T05:34:45.335Z,93.77
2019-04-04T05:37:13.636Z,93.66
2019-04-04T05:39:41.868Z,93.59
2019-04-04T05:42:10.720Z,93.28
2019-04-04T05:44:41.278Z,92.81
2019-04-04T05:47:09.556Z,92.97
2019-04-04T05:49:38.189Z,92.96
2019-04-04T05:52:08.934Z,93.23
2019-04-04T05:54:39.188Z,93.16
2019-04-04T05:57:07.845Z,93.24
2019-04-04T05:59:37.505Z,93.38
2019-04-04T06:02:05.775Z,93.21
2019-04-04T06:04:34.310Z,93.73
2019-04-04T06:07:04.345Z,94.34
2019-04-04T06:09:32.565Z,94.57
2019-04-04T06:12:00.843Z,94.34
2019-04-04T06:14:29.980Z,93.83
2019-04-04T06:16:58.956Z,93.49
2019-04-04T06:19:27.213Z,92.84
2019-04-04T06:21:55.492Z,93.22
2019-04-04T06:24:25.187Z,93.31
2019-04-04T06:26:53.725Z,93.70
2019-04-04T06:29:22.006Z,93.55
2019-04-04T06:31:50.930Z,93.40
2019-04-04T06:34:19.213Z,92.87
2019-04-04T06:36:49.060Z,92.75
2019-04-04T06:39:17.265Z,92.57
2019-04-04T06:41:46.298Z,91.73
2019-04-04T06:44:15.153Z,92.00
2019-04-04T06:46:43.395Z,92.01
2019-04-04T06:49:11.671Z,92.12
2019-04-04T06:51:40.700Z,91.75
2019-04-04T06:54:09.646Z,92.06
2019-04-04T06:56:37.902Z,91.80
2019-04-04T06:59:06.177Z,92.15
2019-04-04T07:01:34.433Z,91.87
2019-04-04T07:04:04.085Z,91.80
2019-04-04T07:06:32.306Z,92.03
2019-04-04T07:09:00.585Z,91.77
2019-04-04T07:11:28.842Z,91.43
2019-04-04T07:13:59.182Z,90.83
2019-04-04T07:16:27.665Z,91.35
2019-04-04T07:18:55.943Z,91.13
2019-04-04T07:21:24.534Z,91.04
2019-04-04T07:23:52.809Z,91.09
2019-04-04T07:26:21.068Z,91.26
2019-04-04T07:28:53.744Z,91.45
2019-04-04T07:31:20.667Z,91.55
2019-04-04T07:33:49.716Z,91.34
2019-04-04T07:36:18.185Z,91.16
2019-04-04T07:38:47.977Z,90.81
2019-04-04T07:41:16.492Z,90.24
2019-04-04T07:43:44.763Z,90.34
2019-04-04T07:46:16.839Z,90.52
2019-04-04T07:48:43.791Z,90.00
2019-04-04T07:51:12.047Z,90.11
2019-04-04T07:53:40.331Z,90.70
2019-04-04T07:56:08.584Z,90.28
2019-04-04T07:58:36.861Z,90.31
2019-04-04T08:01:05.891Z,90.44
2019-04-04T08:03:34.462Z,90.08
2019-04-04T08:06:02.714Z,89.90
2019-04-04T08:08:30.996Z,89.85
2019-04-04T08:10:59.818Z,89.87
2019-04-04T08:13:28.104Z,89.74
2019-04-04T08:15:56.355Z,88.91
2019-04-04T08:18:24.632Z,89.50
2019-04-04T08:20:52.886Z,89.73
2019-04-04T08:23:21.167Z,88.72
2019-04-04T08:25:49.422Z,89.22
2019-04-04T08:28:18.469Z,89.33
2019-04-04T08:30:46.725Z,88.50
2019-04-04T08:33:15.002Z,88.93
2019-04-04T08:35:43.260Z,89.18
2019-04-04T08:38:12.306Z,89.29
2019-04-04T08:40:40.566Z,88.97
2019-04-04T08:43:08.847Z,88.31
2019-04-04T08:45:37.104Z,89.17
2019-04-04T08:48:05.359Z,88.74
2019-04-04T08:50:33.641Z,88.13
2019-04-04T08:53:01.892Z,88.65
2019-04-04T08:55:30.169Z,89.04
2019-04-04T08:57:58.425Z,88.21
2019-04-04T09:00:27.470Z,87.87
2019-04-04T09:02:55.731Z,88.47
2019-04-04T09:05:24.007Z,88.56
2019-04-04T09:07:52.263Z,86.88
2019-04-04T09:10:21.317Z,87.27
2019-04-04T09:12:50.247Z,86.49
2019-04-04T09:15:18.526Z,87.71
2019-04-04T09:17:46.780Z,86.70
2019-04-04T09:20:15.055Z,86.82
2019-04-04T09:22:43.313Z,86.87
2019-04-04T09:25:11.591Z,87.89
2019-04-04T09:27:40.415Z,87.18
2019-04-04T09:30:09.807Z,85.67
2019-04-04T09:32:38.062Z,86.17
2019-04-04T09:35:07.113Z,85.89
2019-04-04T09:37:35.664Z,86.86
2019-04-04T09:40:05.979Z,85.15
2019-04-04T09:42:35.001Z,85.96
2019-04-04T09:45:04.085Z,85.05
2019-04-04T09:47:32.353Z,87.63
2019-04-04T09:50:01.201Z,87.90
2019-04-04T09:52:29.453Z,87.75
2019-04-04T09:54:58.010Z,86.28
2019-04-04T09:57:26.266Z,86.86
2019-04-04T09:59:54.554Z,86.69
2019-04-04T10:02:22.805Z,86.82
2019-04-04T10:04:51.111Z,87.50
2019-04-04T10:07:19.362Z,87.88
2019-04-04T10:09:47.647Z,86.60
2019-04-04T10:12:15.904Z,87.09
2019-04-04T10:14:44.186Z,88.63
2019-04-04T10:17:12.445Z,88.55
2019-04-04T10:19:40.724Z,86.98
2019-04-04T10:22:09.546Z,87.37
2019-04-04T10:24:38.393Z,86.51
2019-04-04T10:27:07.421Z,86.48
2019-04-04T10:29:35.698Z,85.02
2019-04-04T10:32:05.291Z,85.46
2019-04-04T10:34:33.545Z,84.51
2019-04-04T10:37:02.401Z,85.17
2019-04-04T10:39:32.787Z,84.99
2019-04-04T10:42:00.714Z,85.38
2019-04-04T10:44:29.475Z,84.68
2019-04-04T10:46:58.526Z,84.84
2019-04-04T10:49:27.356Z,85.12
2019-04-04T10:51:55.970Z,83.04
2019-04-04T10:54:24.217Z,83.75
2019-04-04T10:56:52.500Z,83.19
2019-04-04T10:59:20.754Z,84.13
2019-04-04T11:01:49.897Z,83.93
2019-04-04T11:04:18.150Z,81.27
2019-04-04T11:06:46.428Z,82.16
2019-04-04T11:09:14.681Z,83.27
2019-04-04T11:11:42.959Z,84.05
2019-04-04T11:14:11.296Z,83.23
2019-04-04T11:16:39.870Z,85.06
2019-04-04T11:19:09.807Z,83.66
2019-04-04T11:21:38.151Z,82.38
2019-04-04T11:24:06.405Z,83.29
2019-04-04T11:26:34.688Z,81.57
2019-04-04T11:29:02.942Z,83.64
2019-04-04T11:31:31.490Z,82.37
2019-04-04T11:34:01.082Z,83.29
2019-04-04T11:36:29.365Z,84.11
2019-04-04T11:38:57.630Z,85.14
2019-04-04T11:41:25.908Z,83.47
2019-04-04T11:43:54.831Z,84.78
2019-04-04T11:46:23.112Z,84.18
2019-04-04T11:48:51.933Z,85.37
2019-04-04T11:51:20.783Z,84.73
2019-04-04T11:53:49.039Z,84.83
2019-04-04T11:56:18.655Z,84.99
2019-04-04T11:58:46.905Z,85.00
2019-04-04T12:01:16.821Z,85.40
2019-04-04T12:03:45.079Z,84.61
2019-04-04T12:06:13.368Z,85.48
2019-04-04T12:08:41.888Z,84.53
2019-04-04T12:11:10.165Z,85.79
2019-04-04T12:13:38.995Z,85.81
2019-04-04T12:16:07.274Z,85.77
2019-04-04T12:18:35.526Z,85.26
2019-04-04T12:21:03.804Z,85.66
2019-04-04T12:23:32.628Z,85.30
2019-04-04T12:26:00.905Z,86.33
2019-04-04T12:28:29.440Z,86.15
2019-04-04T12:30:58.386Z,86.20
2019-04-04T12:33:26.643Z,85.61
2019-04-04T12:35:55.491Z,85.44
2019-04-04T12:38:23.748Z,85.21
2019-04-04T12:40:52.033Z,85.93
2019-04-04T12:43:20.286Z,85.24
2019-04-04T12:45:48.634Z,85.23
2019-04-04T12:48:16.889Z,86.89
2019-04-04T12:50:48.282Z,86.24
2019-04-04T12:53:16.387Z,86.17
2019-04-04T12:55:44.646Z,86.68
2019-04-04T12:58:12.918Z,86.59
2019-04-04T13:00:41.170Z,86.96
2019-04-04T13:03:09.446Z,86.13
2019-04-04T13:05:37.702Z,85.79
2019-04-04T13:08:05.983Z,85.90
2019-04-04T13:10:34.561Z,86.50
2019-04-04T13:13:02.841Z,86.76
2019-04-04T13:15:31.864Z,87.70
2019-04-04T13:18:00.714Z,87.63
2019-04-04T13:20:28.968Z,86.80
2019-04-04T13:22:57.246Z,87.06
2019-04-04T13:25:25.502Z,87.04
2019-04-04T13:27:53.785Z,86.65
2019-04-04T13:30:22.206Z,88.31
2019-04-04T13:32:50.492Z,86.80
2019-04-04T13:35:19.077Z,87.52
2019-04-04T13:37:47.351Z,87.11
2019-04-04T13:40:15.606Z,87.57
2019-04-04T13:42:43.883Z,87.12
2019-04-04T13:45:12.135Z,88.33
2019-04-04T13:47:40.669Z,88.65
2019-04-04T13:50:12.302Z,88.48
2019-04-04T13:52:38.617Z,89.13
2019-04-04T13:55:06.872Z,89.47
2019-04-04T13:57:35.151Z,88.95
2019-04-04T14:00:06.148Z,88.94
2019-04-04T14:02:34.431Z,89.15
2019-04-04T14:05:09.653Z,89.49
2019-04-04T14:07:33.622Z,89.37
2019-04-04T14:10:01.879Z,89.02
2019-04-04T14:12:30.235Z,88.73
2019-04-04T14:14:58.490Z,88.43
2019-04-04T14:17:26.769Z,89.29
2019-04-04T14:19:55.598Z,88.38
2019-04-04T14:22:24.446Z,88.00
2019-04-04T14:24:53.276Z,88.85
2019-04-04T14:27:21.563Z,88.32
2019-04-04T14:29:49.815Z,89.09
2019-04-04T14:32:20.929Z,89.02
2019-04-04T14:34:48.069Z,89.12
2019-04-04T14:37:16.351Z,89.17
2019-04-04T14:39:45.381Z,89.13
2019-04-04T14:42:14.230Z,89.20
2019-04-04T14:44:42.492Z,89.07
2019-04-04T14:47:10.749Z,89.33
2019-04-04T14:49:39.026Z,89.66
2019-04-04T14:52:07.302Z,89.85
2019-04-04T14:54:35.567Z,89.89
2019-04-04T14:57:03.823Z,89.76
2019-04-04T14:59:32.570Z,89.97
2019-04-04T15:02:01.399Z,89.71
2019-04-04T15:04:29.678Z,89.85
2019-04-04T15:06:57.938Z,89.97
2019-04-04T15:09:26.892Z,90.36
2019-04-04T15:11:55.147Z,89.96
2019-04-04T15:14:23.994Z,89.19
2019-04-04T15:16:52.584Z,89.57
2019-04-04T15:19:21.430Z,89.26
2019-04-04T15:21:49.686Z,88.99
2019-04-04T15:24:17.966Z,89.38
2019-04-04T15:26:46.493Z,89.80
2019-04-04T15:29:15.546Z,89.63
2019-04-04T15:31:44.570Z,89.13
2019-04-04T15:34:12.855Z,89.59
2019-04-04T15:36:41.109Z,89.05
2019-04-04T15:39:10.167Z,89.52
2019-04-04T15:41:38.429Z,89.16
2019-04-04T15:44:06.708Z,88.92
2019-04-04T15:46:34.968Z,89.11
2019-04-04T15:49:03.253Z,89.10
2019-04-04T15:51:31.509Z,88.82
2019-04-04T15:53:59.790Z,88.94
2019-04-04T15:56:28.045Z,89.10
2019-04-04T15:58:56.323Z,89.41
2019-04-04T16:01:24.578Z,89.48
2019-04-04T16:03:53.953Z,89.18
2019-04-04T16:06:22.879Z,89.12
2019-04-04T16:08:51.163Z,89.18
2019-04-04T16:11:19.420Z,89.06
2019-04-04T16:13:47.700Z,89.33
2019-04-04T16:16:15.967Z,89.23
2019-04-04T16:18:44.237Z,89.04
2019-04-04T16:21:12.498Z,89.55
2019-04-04T16:23:41.094Z,89.60
2019-04-04T16:26:10.090Z,89.85
2019-04-04T16:28:38.367Z,89.54
2019-04-04T16:31:06.624Z,88.83
2019-04-04T16:33:36.239Z,89.18
2019-04-04T16:36:05.567Z,89.83
2019-04-04T16:38:34.028Z,89.83
2019-04-04T16:41:02.847Z,89.95
2019-04-04T16:43:31.128Z,90.20
2019-04-04T16:45:59.954Z,90.30
2019-04-04T16:48:28.211Z,90.21
2019-04-04T16:50:56.489Z,89.64
2019-04-04T16:53:24.916Z,90.02
2019-04-04T16:55:53.194Z,90.10
2019-04-04T16:58:21.451Z,90.01
2019-04-04T17:00:49.727Z,90.09
2019-04-04T17:03:18.656Z,90.42
2019-04-04T17:05:46.933Z,90.60
2019-04-04T17:08:15.217Z,91.13
2019-04-04T17:10:44.105Z,90.86
2019-04-04T17:13:12.363Z,90.73
2019-04-04T17:15:41.406Z,90.90
2019-04-04T17:18:09.662Z,91.25
2019-04-04T17:20:38.520Z,91.06
2019-04-04T17:23:06.849Z,91.25
2019-04-04T17:25:35.131Z,90.94
2019-04-04T17:28:03.432Z,91.36
2019-04-04T17:30:32.477Z,91.87
2019-04-04T17:33:01.132Z,91.94
2019-04-04T17:35:29.859Z,92.05
2019-04-04T17:37:58.119Z,91.91
2019-04-04T17:40:26.392Z,92.13
2019-04-04T17:42:54.697Z,92.12
2019-04-04T17:45:25.247Z,92.19
2019-04-04T17:47:53.576Z,92.75
2019-04-04T17:50:21.904Z,93.09
2019-04-04T17:52:50.629Z,93.05
2019-04-04T17:55:18.949Z,93.18
2019-04-04T17:57:47.738Z,93.11
2019-04-04T18:00:16.410Z,93.27
2019-04-04T18:02:44.686Z,93.28
2019-04-04T18:05:13.534Z,93.56
2019-04-04T18:07:41.794Z,93.40
2019-04-04T18:12:42.537Z,93.40
2019-04-04T18:15:10.821Z,93.31
2019-04-04T18:17:39.082Z,93.55
2019-04-04T18:20:07.736Z,93.70
2019-04-04T18:22:36.064Z,93.63
2019-04-04T18:25:08.067Z,93.63
2019-04-04T18:27:36.325Z,93.77
2019-04-04T18:30:07.865Z,93.76
2019-04-04T18:32:36.122Z,93.57
2019-04-04T18:35:06.217Z,93.82
2019-04-04T18:37:34.556Z,93.84
2019-04-04T18:40:03.203Z,93.93
2019-04-04T18:42:31.459Z,94.20
2019-04-04T18:44:59.747Z,94.20
2019-04-04T18:47:28.003Z,94.48
2019-04-04T18:49:56.285Z,94.49
2019-04-04T18:52:24.538Z,94.46
2019-04-04T18:54:52.800Z,94.18
2019-04-04T18:57:21.082Z,94.00
2019-04-04T18:59:49.341Z,93.94
2019-04-04T19:02:17.613Z,94.09
2019-04-04T19:04:45.872Z,94.30
2019-04-04T19:07:14.155Z,94.42
2019-04-04T19:09:42.417Z,94.15
2019-04-04T19:12:10.695Z,93.87
2019-04-04T19:14:38.952Z,94.24
2019-04-04T19:17:07.226Z,94.27
2019-04-04T19:19:35.486Z,94.10
2019-04-04T19:22:03.770Z,94.31
2019-04-04T19:24:32.022Z,94.21
2019-04-04T19:27:00.303Z,94.30
2019-04-04T19:29:31.416Z,94.25
2019-04-04T19:31:58.563Z,94.43
2019-04-04T19:34:26.829Z,94.29
2019-04-04T19:36:55.368Z,94.27
2019-04-04T19:39:23.627Z,94.09
2019-04-04T19:41:51.902Z,93.85
2019-04-04T19:44:20.165Z,94.19
2019-04-04T19:46:48.453Z,94.35
2019-04-04T19:49:16.702Z,93.97
2019-04-04T19:51:44.988Z,94.29
2019-04-04T19:54:13.239Z,94.18
2019-04-04T19:56:41.607Z,94.35
2019-04-04T19:59:09.858Z,94.22
2019-04-04T20:01:38.198Z,94.41
2019-04-04T20:04:06.464Z,94.25
2019-04-04T20:06:34.749Z,94.00
2019-04-04T20:09:03.006Z,94.05
2019-04-04T20:11:31.282Z,94.18
2019-04-04T20:13:59.543Z,94.25
2019-04-04T20:16:27.822Z,94.29
2019-04-04T20:18:56.073Z,94.39
2019-04-04T20:21:24.352Z,94.37
2019-04-04T20:23:52.610Z,94.16
2019-04-04T20:26:21.553Z,94.25
2019-04-04T20:28:49.806Z,94.39
2019-04-04T20:31:18.088Z,94.26
2019-04-04T20:33:46.343Z,94.37
2019-04-04T20:36:14.621Z,94.45
2019-04-04T20:38:43.559Z,94.33
2019-04-04T20:41:12.601Z,94.38
2019-04-04T20:43:43.476Z,94.32
2019-04-04T20:46:12.264Z,94.14
2019-04-04T20:48:40.518Z,94.29
2019-04-04T20:51:08.770Z,94.28
2019-04-04T20:53:37.057Z,94.24
2019-04-04T20:56:05.659Z,94.21
2019-04-04T20:58:33.940Z,94.39
2019-04-04T21:01:02.225Z,94.44
2019-04-04T21:03:30.509Z,94.47
2019-04-04T21:05:58.763Z,94.65
2019-04-04T21:08:27.055Z,94.62
2019-04-04T21:10:55.312Z,94.45
2019-04-04T21:13:23.858Z,94.33
2019-04-04T21:15:52.129Z,94.49
2019-04-04T21:18:20.406Z,94.60
2019-04-04T21:20:48.662Z,94.41
2019-04-04T21:23:17.225Z,94.65
2019-04-04T21:25:45.480Z,94.59
2019-04-04T21:28:13.826Z,94.66
2019-04-04T21:30:42.858Z,94.93
2019-04-04T21:33:11.142Z,94.75
2019-04-04T21:35:39.962Z,94.78
2019-04-04T21:38:08.817Z,94.69
2019-04-04T21:40:37.075Z,94.89
2019-04-04T21:43:05.356Z,94.95
2019-04-04T21:45:33.621Z,95.14
2019-04-04T21:48:01.900Z,95.18
2019-04-04T21:50:30.155Z,95.23
2019-04-04T21:52:58.435Z,95.17
2019-04-04T21:55:26.690Z,95.12
2019-04-04T21:57:55.533Z,95.10
2019-04-04T22:00:25.425Z,94.96
2019-04-04T22:02:53.706Z,94.78
2019-04-04T22:05:22.539Z,95.01
2019-04-04T22:07:50.818Z,95.07
2019-04-04T22:10:19.074Z,94.96
2019-04-04T22:12:48.120Z,94.94
2019-04-04T22:15:16.379Z,94.72
2019-04-04T22:17:44.659Z,94.77
2019-04-04T22:20:12.917Z,94.94
2019-04-04T22:22:41.763Z,94.94
2019-04-04T22:25:10.023Z,94.42
2019-04-04T22:27:38.306Z,94.52
2019-04-04T22:30:09.389Z,94.47
2019-04-04T22:32:37.678Z,94.69
2019-04-04T22:35:06.602Z,94.67
2019-04-04T22:37:35.545Z,94.86
2019-04-04T22:40:06.043Z,94.85
2019-04-04T22:42:34.324Z,94.61
2019-04-04T22:45:03.349Z,94.94
2019-04-04T22:47:32.399Z,95.32
2019-04-04T22:50:00.656Z,95.34
2019-04-04T22:52:29.707Z,95.41
2019-04-04T22:54:57.963Z,95.38
2019-04-04T22:57:26.992Z,95.40
2019-04-04T22:59:55.265Z,95.18
2019-04-04T23:02:24.094Z,95.20
2019-04-04T23:04:52.376Z,95.16
2019-04-04T23:07:20.632Z,95.17
2019-04-04T23:09:49.583Z,94.99
2019-04-04T23:12:17.841Z,95.20
2019-04-04T23:14:48.401Z,95.37
2019-04-04T23:17:17.397Z,95.52
2019-04-04T23:19:45.676Z,95.50
2019-04-04T23:22:13.929Z,95.13
2019-04-04T23:24:42.214Z,94.88
2019-04-04T23:27:10.472Z,94.92
2019-04-04T23:29:38.757Z,94.87
2019-04-04T23:32:07.016Z,95.12
2019-04-04T23:34:35.301Z,95.10
2019-04-04T23:37:03.564Z,95.32
2019-04-04T23:39:31.842Z,95.31
2019-04-04T23:42:00.106Z,95.18
2019-04-04T23:44:28.386Z,95.31
2019-04-04T23:46:56.656Z,95.56
2019-04-04T23:49:24.957Z,95.62
2019-04-04T23:51:53.200Z,95.40
2019-04-04T23:54:21.489Z,95.46
2019-04-04T23:56:50.314Z,95.63
2019-04-04T23:59:18.597Z,95.58
